sensor_id;sensor_type;location;lat;lon;timestamp;temperature;humidity
71082;SHT31;58740;50.672;18.690;2022-11-03T00:02:14;9.02;74.49
71082;SHT31;58740;50.672;18.690;2022-11-03T00:04:42;8.99;74.34
71082;SHT31;58740;50.672;18.690;2022-11-03T00:07:10;8.92;74.23
71082;SHT31;58740;50.672;18.690;2022-11-03T00:09:38;8.87;74.23
71082;SHT31;58740;50.672;18.690;2022-11-03T00:12:06;8.83;74.04
71082;SHT31;58740;50.672;18.690;2022-11-03T00:14:34;8.79;73.98
71082;SHT31;58740;50.672;18.690;2022-11-03T00:17:02;8.75;73.92
71082;SHT31;58740;50.672;18.690;2022-11-03T00:19:30;8.71;73.87
71082;SHT31;58740;50.672;18.690;2022-11-03T00:21:57;8.67;73.82
71082;SHT31;58740;50.672;18.690;2022-11-03T00:24:25;8.63;73.84
71082;SHT31;58740;50.672;18.690;2022-11-03T00:26:53;8.60;73.77
71082;SHT31;58740;50.672;18.690;2022-11-03T00:29:21;8.54;73.71
71082;SHT31;58740;50.672;18.690;2022-11-03T00:31:48;8.48;73.80
71082;SHT31;58740;50.672;18.690;2022-11-03T00:34:16;8.44;73.77
71082;SHT31;58740;50.672;18.690;2022-11-03T00:36:44;8.38;73.86
71082;SHT31;58740;50.672;18.690;2022-11-03T00:39:11;8.37;74.09
71082;SHT31;58740;50.672;18.690;2022-11-03T00:41:39;8.37;74.11
71082;SHT31;58740;50.672;18.690;2022-11-03T00:44:07;8.38;74.21
71082;SHT31;58740;50.672;18.690;2022-11-03T00:46:37;8.40;74.57
71082;SHT31;58740;50.672;18.690;2022-11-03T00:49:05;8.43;74.67
71082;SHT31;58740;50.672;18.690;2022-11-03T00:51:33;8.45;74.78
71082;SHT31;58740;50.672;18.690;2022-11-03T00:54:04;8.48;74.75
71082;SHT31;58740;50.672;18.690;2022-11-03T00:56:37;8.45;74.78
71082;SHT31;58740;50.672;18.690;2022-11-03T00:59:08;8.45;74.90
71082;SHT31;58740;50.672;18.690;2022-11-03T01:01:41;8.45;74.87
71082;SHT31;58740;50.672;18.690;2022-11-03T01:04:15;8.48;74.83
71082;SHT31;58740;50.672;18.690;2022-11-03T01:07:03;8.51;74.68
71082;SHT31;58740;50.672;18.690;2022-11-03T01:09:34;8.53;74.56
71082;SHT31;58740;50.672;18.690;2022-11-03T01:17:12;8.44;74.25
71082;SHT31;58740;50.672;18.690;2022-11-03T01:19:42;8.39;74.16
71082;SHT31;58740;50.672;18.690;2022-11-03T01:22:11;8.30;73.83
71082;SHT31;58740;50.672;18.690;2022-11-03T01:24:40;8.16;73.76
71082;SHT31;58740;50.672;18.690;2022-11-03T01:27:10;8.04;73.76
71082;SHT31;58740;50.672;18.690;2022-11-03T01:29:41;7.97;73.49
71082;SHT31;58740;50.672;18.690;2022-11-03T01:32:10;7.89;73.39
71082;SHT31;58740;50.672;18.690;2022-11-03T01:34:39;7.83;73.41
71082;SHT31;58740;50.672;18.690;2022-11-03T01:37:07;7.77;73.36
71082;SHT31;58740;50.672;18.690;2022-11-03T01:39:35;7.72;73.32
71082;SHT31;58740;50.672;18.690;2022-11-03T01:42:02;7.66;73.28
71082;SHT31;58740;50.672;18.690;2022-11-03T01:44:31;7.61;73.34
71082;SHT31;58740;50.672;18.690;2022-11-03T01:47:13;7.54;73.41
71082;SHT31;58740;50.672;18.690;2022-11-03T01:52:50;7.42;73.75
71082;SHT31;58740;50.672;18.690;2022-11-03T01:55:25;7.38;73.91
71082;SHT31;58740;50.672;18.690;2022-11-03T01:58:03;7.35;74.00
71082;SHT31;58740;50.672;18.690;2022-11-03T02:00:37;7.35;74.10
71082;SHT31;58740;50.672;18.690;2022-11-03T02:03:10;7.37;74.44
71082;SHT31;58740;50.672;18.690;2022-11-03T02:05:39;7.36;74.03
71082;SHT31;58740;50.672;18.690;2022-11-03T02:08:16;7.31;74.02
71082;SHT31;58740;50.672;18.690;2022-11-03T02:10:50;7.28;74.11
71082;SHT31;58740;50.672;18.690;2022-11-03T02:13:19;7.25;74.18
71082;SHT31;58740;50.672;18.690;2022-11-03T02:15:55;7.25;74.08
71082;SHT31;58740;50.672;18.690;2022-11-03T02:18:26;7.25;74.08
71082;SHT31;58740;50.672;18.690;2022-11-03T02:21:43;7.23;74.03
71082;SHT31;58740;50.672;18.690;2022-11-03T02:26:58;7.16;73.85
71082;SHT31;58740;50.672;18.690;2022-11-03T02:29:26;7.14;73.86
71082;SHT31;58740;50.672;18.690;2022-11-03T02:31:57;7.13;73.88
71082;SHT31;58740;50.672;18.690;2022-11-03T02:34:49;7.11;73.98
71082;SHT31;58740;50.672;18.690;2022-11-03T02:37:45;7.09;73.99
71082;SHT31;58740;50.672;18.690;2022-11-03T02:40:22;7.09;73.91
71082;SHT31;58740;50.672;18.690;2022-11-03T02:42:56;7.06;73.88
71082;SHT31;58740;50.672;18.690;2022-11-03T02:45:27;7.03;73.84
71082;SHT31;58740;50.672;18.690;2022-11-03T02:47:57;6.97;73.68
71082;SHT31;58740;50.672;18.690;2022-11-03T02:50:29;6.90;73.69
71082;SHT31;58740;50.672;18.690;2022-11-03T02:52:59;6.86;74.00
71082;SHT31;58740;50.672;18.690;2022-11-03T03:00:57;6.85;74.30
71082;SHT31;58740;50.672;18.690;2022-11-03T03:03:45;6.83;74.22
71082;SHT31;58740;50.672;18.690;2022-11-03T03:06:25;6.82;74.00
71082;SHT31;58740;50.672;18.690;2022-11-03T03:09:07;6.79;74.18
71082;SHT31;58740;50.672;18.690;2022-11-03T03:11:44;6.76;74.10
71082;SHT31;58740;50.672;18.690;2022-11-03T03:14:19;6.76;74.19
71082;SHT31;58740;50.672;18.690;2022-11-03T03:23:12;6.67;74.28
71082;SHT31;58740;50.672;18.690;2022-11-03T03:28:34;6.71;74.38
71082;SHT31;58740;50.672;18.690;2022-11-03T03:31:10;6.67;74.37
71082;SHT31;58740;50.672;18.690;2022-11-03T03:33:40;6.64;74.42
71082;SHT31;58740;50.672;18.690;2022-11-03T03:36:14;6.61;74.31
71082;SHT31;58740;50.672;18.690;2022-11-03T03:38:54;6.57;74.25
71082;SHT31;58740;50.672;18.690;2022-11-03T03:41:28;6.56;74.28
71082;SHT31;58740;50.672;18.690;2022-11-03T03:43:59;6.54;74.22
71082;SHT31;58740;50.672;18.690;2022-11-03T03:46:33;6.51;73.99
71082;SHT31;58740;50.672;18.690;2022-11-03T03:49:09;6.47;74.21
71082;SHT31;58740;50.672;18.690;2022-11-03T03:51:36;6.48;73.98
71082;SHT31;58740;50.672;18.690;2022-11-03T03:54:05;6.46;73.93
71082;SHT31;58740;50.672;18.690;2022-11-03T03:56:35;6.44;73.89
71082;SHT31;58740;50.672;18.690;2022-11-03T03:59:18;6.39;73.72
71082;SHT31;58740;50.672;18.690;2022-11-03T04:01:45;6.33;73.97
71082;SHT31;58740;50.672;18.690;2022-11-03T04:04:13;6.28;74.07
71082;SHT31;58740;50.672;18.690;2022-11-03T04:06:41;6.25;73.95
71082;SHT31;58740;50.672;18.690;2022-11-03T04:09:09;6.22;73.77
71082;SHT31;58740;50.672;18.690;2022-11-03T04:11:36;6.17;73.71
71082;SHT31;58740;50.672;18.690;2022-11-03T04:14:23;6.12;73.80
71082;SHT31;58740;50.672;18.690;2022-11-03T04:17:18;6.09;73.78
71082;SHT31;58740;50.672;18.690;2022-11-03T04:20:08;6.05;73.94
71082;SHT31;58740;50.672;18.690;2022-11-03T04:22:58;6.06;73.89
71082;SHT31;58740;50.672;18.690;2022-11-03T04:25:26;6.06;74.09
71082;SHT31;58740;50.672;18.690;2022-11-03T04:27:54;6.03;73.72
71082;SHT31;58740;50.672;18.690;2022-11-03T04:30:21;6.01;73.67
71082;SHT31;58740;50.672;18.690;2022-11-03T04:32:51;5.99;73.77
71082;SHT31;58740;50.672;18.690;2022-11-03T04:35:21;5.96;73.78
71082;SHT31;58740;50.672;18.690;2022-11-03T04:38:02;5.93;73.84
71082;SHT31;58740;50.672;18.690;2022-11-03T04:40:47;5.94;74.07
71082;SHT31;58740;50.672;18.690;2022-11-03T04:43:30;5.98;74.03
71082;SHT31;58740;50.672;18.690;2022-11-03T04:46:01;5.99;73.87
71082;SHT31;58740;50.672;18.690;2022-11-03T04:48:29;5.98;73.65
71082;SHT31;58740;50.672;18.690;2022-11-03T04:50:58;5.97;73.75
71082;SHT31;58740;50.672;18.690;2022-11-03T04:53:37;5.95;73.58
71082;SHT31;58740;50.672;18.690;2022-11-03T04:56:15;5.90;73.62
71082;SHT31;58740;50.672;18.690;2022-11-03T04:58:51;5.87;73.62
71082;SHT31;58740;50.672;18.690;2022-11-03T05:01:21;5.86;73.47
71082;SHT31;58740;50.672;18.690;2022-11-03T05:03:52;5.82;73.42
71082;SHT31;58740;50.672;18.690;2022-11-03T05:06:22;5.78;73.46
71082;SHT31;58740;50.672;18.690;2022-11-03T05:08:55;5.76;73.29
71082;SHT31;58740;50.672;18.690;2022-11-03T05:11:29;5.72;73.28
71082;SHT31;58740;50.672;18.690;2022-11-03T05:14:06;5.69;73.21
71082;SHT31;58740;50.672;18.690;2022-11-03T05:16:45;5.68;73.17
71082;SHT31;58740;50.672;18.690;2022-11-03T05:19:17;5.64;73.03
71082;SHT31;58740;50.672;18.690;2022-11-03T05:21:59;5.56;73.27
71082;SHT31;58740;50.672;18.690;2022-11-03T05:24:31;5.57;73.23
71082;SHT31;58740;50.672;18.690;2022-11-03T05:27:02;5.58;73.12
71082;SHT31;58740;50.672;18.690;2022-11-03T05:29:36;5.58;73.03
71082;SHT31;58740;50.672;18.690;2022-11-03T05:32:22;5.55;72.97
71082;SHT31;58740;50.672;18.690;2022-11-03T05:34:54;5.49;73.04
71082;SHT31;58740;50.672;18.690;2022-11-03T05:37:25;5.44;73.21
71082;SHT31;58740;50.672;18.690;2022-11-03T05:40:05;5.40;73.29
71082;SHT31;58740;50.672;18.690;2022-11-03T05:42:52;5.34;73.38
71082;SHT31;58740;50.672;18.690;2022-11-03T05:45:31;5.32;73.41
71082;SHT31;58740;50.672;18.690;2022-11-03T05:48:01;5.26;73.50
71082;SHT31;58740;50.672;18.690;2022-11-03T05:50:39;5.26;73.72
71082;SHT31;58740;50.672;18.690;2022-11-03T05:55:56;5.30;73.64
71082;SHT31;58740;50.672;18.690;2022-11-03T05:58:34;5.29;73.58
71082;SHT31;58740;50.672;18.690;2022-11-03T06:03:55;5.29;73.99
71082;SHT31;58740;50.672;18.690;2022-11-03T06:06:28;5.29;74.13
71082;SHT31;58740;50.672;18.690;2022-11-03T06:09:02;5.29;73.91
71082;SHT31;58740;50.672;18.690;2022-11-03T06:11:40;5.28;74.16
71082;SHT31;58740;50.672;18.690;2022-11-03T06:14:15;5.32;74.52
71082;SHT31;58740;50.672;18.690;2022-11-03T06:16:55;5.37;74.67
71082;SHT31;58740;50.672;18.690;2022-11-03T06:19:29;5.42;75.09
71082;SHT31;58740;50.672;18.690;2022-11-03T06:25:18;5.60;75.39
71082;SHT31;58740;50.672;18.690;2022-11-03T06:27:59;5.69;75.65
71082;SHT31;58740;50.672;18.690;2022-11-03T06:30:31;5.74;75.88
71082;SHT31;58740;50.672;18.690;2022-11-03T06:33:11;5.77;76.05
71082;SHT31;58740;50.672;18.690;2022-11-03T06:35:45;5.82;76.14
71082;SHT31;58740;50.672;18.690;2022-11-03T06:38:20;5.89;76.17
71082;SHT31;58740;50.672;18.690;2022-11-03T06:40:56;5.93;76.36
71082;SHT31;58740;50.672;18.690;2022-11-03T06:43:26;5.97;76.45
71082;SHT31;58740;50.672;18.690;2022-11-03T06:46:11;6.03;76.58
71082;SHT31;58740;50.672;18.690;2022-11-03T06:48:46;6.08;76.64
71082;SHT31;58740;50.672;18.690;2022-11-03T06:51:18;6.13;76.71
71082;SHT31;58740;50.672;18.690;2022-11-03T06:53:50;6.19;76.80
71082;SHT31;58740;50.672;18.690;2022-11-03T06:56:22;6.25;76.79
71082;SHT31;58740;50.672;18.690;2022-11-03T06:58:55;6.32;76.80
71082;SHT31;58740;50.672;18.690;2022-11-03T07:01:24;6.41;76.78
71082;SHT31;58740;50.672;18.690;2022-11-03T07:04:01;6.49;76.85
71082;SHT31;58740;50.672;18.690;2022-11-03T07:06:41;6.58;76.90
71082;SHT31;58740;50.672;18.690;2022-11-03T07:09:17;6.67;76.96
71082;SHT31;58740;50.672;18.690;2022-11-03T07:11:52;6.76;76.90
71082;SHT31;58740;50.672;18.690;2022-11-03T07:14:28;6.84;76.96
71082;SHT31;58740;50.672;18.690;2022-11-03T07:17:01;6.93;77.05
71082;SHT31;58740;50.672;18.690;2022-11-03T07:19:32;7.00;77.19
71082;SHT31;58740;50.672;18.690;2022-11-03T07:22:07;7.09;77.44
71082;SHT31;58740;50.672;18.690;2022-11-03T07:24:45;7.20;77.56
71082;SHT31;58740;50.672;18.690;2022-11-03T07:27:24;7.32;77.65
71082;SHT31;58740;50.672;18.690;2022-11-03T07:29:57;7.44;77.67
71082;SHT31;58740;50.672;18.690;2022-11-03T07:32:35;7.57;77.58
71082;SHT31;58740;50.672;18.690;2022-11-03T07:35:03;7.70;77.49
71082;SHT31;58740;50.672;18.690;2022-11-03T07:37:43;7.79;77.58
71082;SHT31;58740;50.672;18.690;2022-11-03T07:40:15;7.87;77.70
71082;SHT31;58740;50.672;18.690;2022-11-03T07:42:55;7.99;77.60
71082;SHT31;58740;50.672;18.690;2022-11-03T07:54:01;8.29;77.95
71082;SHT31;58740;50.672;18.690;2022-11-03T07:56:39;8.37;77.93
71082;SHT31;58740;50.672;18.690;2022-11-03T07:59:20;8.46;78.20
71082;SHT31;58740;50.672;18.690;2022-11-03T08:01:55;8.54;78.20
71082;SHT31;58740;50.672;18.690;2022-11-03T08:04:32;8.64;78.13
71082;SHT31;58740;50.672;18.690;2022-11-03T08:07:02;8.73;78.15
71082;SHT31;58740;50.672;18.690;2022-11-03T08:09:29;8.83;77.93
71082;SHT31;58740;50.672;18.690;2022-11-03T08:11:57;8.94;77.85
71082;SHT31;58740;50.672;18.690;2022-11-03T08:14:25;9.04;77.79
71082;SHT31;58740;50.672;18.690;2022-11-03T08:16:53;9.10;77.66
71082;SHT31;58740;50.672;18.690;2022-11-03T08:19:21;9.19;77.58
71082;SHT31;58740;50.672;18.690;2022-11-03T08:21:49;9.25;77.60
71082;SHT31;58740;50.672;18.690;2022-11-03T08:24:16;9.33;77.49
71082;SHT31;58740;50.672;18.690;2022-11-03T08:26:44;9.40;77.40
71082;SHT31;58740;50.672;18.690;2022-11-03T08:29:11;9.47;77.26
71082;SHT31;58740;50.672;18.690;2022-11-03T08:31:39;9.53;77.21
71082;SHT31;58740;50.672;18.690;2022-11-03T08:34:07;9.59;77.21
71082;SHT31;58740;50.672;18.690;2022-11-03T08:36:36;9.65;77.07
71082;SHT31;58740;50.672;18.690;2022-11-03T08:39:04;9.71;76.93
71082;SHT31;58740;50.672;18.690;2022-11-03T08:41:32;9.78;76.95
71082;SHT31;58740;50.672;18.690;2022-11-03T08:43:59;9.88;76.93
71082;SHT31;58740;50.672;18.690;2022-11-03T08:46:27;9.98;76.66
71082;SHT31;58740;50.672;18.690;2022-11-03T08:48:55;10.05;76.57
71082;SHT31;58740;50.672;18.690;2022-11-03T08:51:23;10.10;76.40
71082;SHT31;58740;50.672;18.690;2022-11-03T08:53:50;10.19;76.29
71082;SHT31;58740;50.672;18.690;2022-11-03T08:56:20;10.23;75.73
71082;SHT31;58740;50.672;18.690;2022-11-03T08:58:49;10.28;75.66
71082;SHT31;58740;50.672;18.690;2022-11-03T09:01:17;10.35;75.63
71082;SHT31;58740;50.672;18.690;2022-11-03T09:03:45;10.43;75.53
71082;SHT31;58740;50.672;18.690;2022-11-03T09:06:13;10.50;75.53
71082;SHT31;58740;50.672;18.690;2022-11-03T09:08:40;10.58;75.19
71082;SHT31;58740;50.672;18.690;2022-11-03T09:11:28;10.64;74.96
71082;SHT31;58740;50.672;18.690;2022-11-03T09:13:56;10.71;74.76
71082;SHT31;58740;50.672;18.690;2022-11-03T09:16:24;10.77;74.47
71082;SHT31;58740;50.672;18.690;2022-11-03T09:18:52;10.82;74.17
71082;SHT31;58740;50.672;18.690;2022-11-03T09:21:20;10.82;73.93
71082;SHT31;58740;50.672;18.690;2022-11-03T09:23:48;10.87;74.00
71082;SHT31;58740;50.672;18.690;2022-11-03T09:26:15;10.92;74.13
71082;SHT31;58740;50.672;18.690;2022-11-03T09:28:43;11.00;74.15
71082;SHT31;58740;50.672;18.690;2022-11-03T09:31:11;11.09;73.87
71082;SHT31;58740;50.672;18.690;2022-11-03T09:33:39;11.16;73.48
71082;SHT31;58740;50.672;18.690;2022-11-03T09:36:07;11.22;73.28
71082;SHT31;58740;50.672;18.690;2022-11-03T09:38:35;11.26;73.36
71082;SHT31;58740;50.672;18.690;2022-11-03T09:41:03;11.31;73.09
71082;SHT31;58740;50.672;18.690;2022-11-03T09:43:51;11.40;72.93
71082;SHT31;58740;50.672;18.690;2022-11-03T09:46:20;11.49;72.87
71082;SHT31;58740;50.672;18.690;2022-11-03T09:48:47;11.55;72.08
71082;SHT31;58740;50.672;18.690;2022-11-03T09:51:19;11.59;72.32
71082;SHT31;58740;50.672;18.690;2022-11-03T09:53:48;11.62;72.10
71082;SHT31;58740;50.672;18.690;2022-11-03T09:56:16;11.67;71.58
71082;SHT31;58740;50.672;18.690;2022-11-03T09:58:48;11.70;70.99
71082;SHT31;58740;50.672;18.690;2022-11-03T10:01:21;11.75;70.58
71082;SHT31;58740;50.672;18.690;2022-11-03T10:03:50;11.79;70.20
71082;SHT31;58740;50.672;18.690;2022-11-03T10:06:18;11.82;69.48
71082;SHT31;58740;50.672;18.690;2022-11-03T10:08:47;11.86;69.34
71082;SHT31;58740;50.672;18.690;2022-11-03T10:11:16;11.89;69.20
71082;SHT31;58740;50.672;18.690;2022-11-03T10:13:45;11.93;68.73
71082;SHT31;58740;50.672;18.690;2022-11-03T10:16:20;11.97;68.23
71082;SHT31;58740;50.672;18.690;2022-11-03T10:18:51;12.01;68.69
71082;SHT31;58740;50.672;18.690;2022-11-03T10:21:22;12.08;68.37
71082;SHT31;58740;50.672;18.690;2022-11-03T10:23:57;12.14;67.53
71082;SHT31;58740;50.672;18.690;2022-11-03T10:26:25;12.19;67.26
71082;SHT31;58740;50.672;18.690;2022-11-03T10:28:56;12.22;66.38
71082;SHT31;58740;50.672;18.690;2022-11-03T10:31:33;12.23;65.43
71082;SHT31;58740;50.672;18.690;2022-11-03T10:39:41;12.36;63.75
71082;SHT31;58740;50.672;18.690;2022-11-03T10:42:16;12.43;63.44
71082;SHT31;58740;50.672;18.690;2022-11-03T10:45:09;12.48;63.51
71082;SHT31;58740;50.672;18.690;2022-11-03T10:47:58;12.50;63.44
71082;SHT31;58740;50.672;18.690;2022-11-03T10:50:28;12.52;62.73
71082;SHT31;58740;50.672;18.690;2022-11-03T10:52:56;12.58;62.20
71082;SHT31;58740;50.672;18.690;2022-11-03T10:55:24;12.63;61.19
71082;SHT31;58740;50.672;18.690;2022-11-03T10:57:53;12.66;60.43
71082;SHT31;58740;50.672;18.690;2022-11-03T11:00:24;12.69;61.12
71082;SHT31;58740;50.672;18.690;2022-11-03T11:02:53;12.74;61.67
71082;SHT31;58740;50.672;18.690;2022-11-03T11:05:28;12.77;61.50
71082;SHT31;58740;50.672;18.690;2022-11-03T11:07:55;12.82;61.31
71082;SHT31;58740;50.672;18.690;2022-11-03T11:10:27;12.86;60.18
71082;SHT31;58740;50.672;18.690;2022-11-03T11:13:01;12.89;60.13
71082;SHT31;58740;50.672;18.690;2022-11-03T11:29:29;12.97;59.27
71082;SHT31;58740;50.672;18.690;2022-11-03T11:36:37;12.94;59.36
71082;SHT31;58740;50.672;18.690;2022-11-03T11:39:09;12.92;59.66
71082;SHT31;58740;50.672;18.690;2022-11-03T11:47:23;12.96;60.15
71082;SHT31;58740;50.672;18.690;2022-11-03T11:55:32;13.00;59.44
71082;SHT31;58740;50.672;18.690;2022-11-03T11:58:05;13.01;59.39
71082;SHT31;58740;50.672;18.690;2022-11-03T12:03:30;13.02;59.49
71082;SHT31;58740;50.672;18.690;2022-11-03T12:06:03;13.04;59.45
71082;SHT31;58740;50.672;18.690;2022-11-03T12:08:32;13.06;59.45
71082;SHT31;58740;50.672;18.690;2022-11-03T12:11:01;13.10;59.34
71082;SHT31;58740;50.672;18.690;2022-11-03T12:13:33;13.13;59.02
71082;SHT31;58740;50.672;18.690;2022-11-03T12:22:10;13.18;57.25
71082;SHT31;58740;50.672;18.690;2022-11-03T12:25:31;13.20;57.81
71082;SHT31;58740;50.672;18.690;2022-11-03T12:28:02;13.23;57.14
71082;SHT31;58740;50.672;18.690;2022-11-03T12:30:30;13.26;57.55
71082;SHT31;58740;50.672;18.690;2022-11-03T12:33:05;13.26;57.09
71082;SHT31;58740;50.672;18.690;2022-11-03T12:35:34;13.30;57.25
71082;SHT31;58740;50.672;18.690;2022-11-03T12:38:02;13.31;56.97
71082;SHT31;58740;50.672;18.690;2022-11-03T12:40:30;13.34;56.67
71082;SHT31;58740;50.672;18.690;2022-11-03T12:42:57;13.35;57.05
71082;SHT31;58740;50.672;18.690;2022-11-03T12:45:25;13.37;56.38
71082;SHT31;58740;50.672;18.690;2022-11-03T12:47:53;13.40;56.80
71082;SHT31;58740;50.672;18.690;2022-11-03T12:50:21;13.41;55.85
71082;SHT31;58740;50.672;18.690;2022-11-03T12:52:48;13.43;55.59
71082;SHT31;58740;50.672;18.690;2022-11-03T12:55:16;13.44;55.20
71082;SHT31;58740;50.672;18.690;2022-11-03T12:57:44;13.44;55.50
71082;SHT31;58740;50.672;18.690;2022-11-03T13:00:12;13.43;55.10
71082;SHT31;58740;50.672;18.690;2022-11-03T13:02:41;13.44;55.18
71082;SHT31;58740;50.672;18.690;2022-11-03T13:05:09;13.44;54.88
71082;SHT31;58740;50.672;18.690;2022-11-03T13:07:41;13.45;54.81
71082;SHT31;58740;50.672;18.690;2022-11-03T13:10:09;13.46;54.77
71082;SHT31;58740;50.672;18.690;2022-11-03T13:12:37;13.46;54.77
71082;SHT31;58740;50.672;18.690;2022-11-03T13:15:08;13.47;55.15
71082;SHT31;58740;50.672;18.690;2022-11-03T13:17:37;13.48;54.88
71082;SHT31;58740;50.672;18.690;2022-11-03T13:20:25;13.47;55.02
71082;SHT31;58740;50.672;18.690;2022-11-03T13:22:53;13.48;54.41
71082;SHT31;58740;50.672;18.690;2022-11-03T13:25:21;13.48;54.38
71082;SHT31;58740;50.672;18.690;2022-11-03T13:27:50;13.46;53.48
71082;SHT31;58740;50.672;18.690;2022-11-03T13:30:21;13.45;53.63
71082;SHT31;58740;50.672;18.690;2022-11-03T13:32:53;13.43;53.50
71082;SHT31;58740;50.672;18.690;2022-11-03T13:35:21;13.43;53.52
71082;SHT31;58740;50.672;18.690;2022-11-03T13:37:49;13.43;52.72
71082;SHT31;58740;50.672;18.690;2022-11-03T13:40:17;13.43;52.68
71082;SHT31;58740;50.672;18.690;2022-11-03T13:43:06;13.41;52.72
71082;SHT31;58740;50.672;18.690;2022-11-03T13:45:34;13.41;52.72
71082;SHT31;58740;50.672;18.690;2022-11-03T13:48:01;13.42;52.73
71082;SHT31;58740;50.672;18.690;2022-11-03T13:50:49;13.41;53.45
71082;SHT31;58740;50.672;18.690;2022-11-03T13:53:20;13.41;54.25
71082;SHT31;58740;50.672;18.690;2022-11-03T13:56:08;13.40;54.37
71082;SHT31;58740;50.672;18.690;2022-11-03T13:58:43;13.38;54.58
71082;SHT31;58740;50.672;18.690;2022-11-03T14:01:31;13.39;54.85
71082;SHT31;58740;50.672;18.690;2022-11-03T14:03:59;13.38;55.30
71082;SHT31;58740;50.672;18.690;2022-11-03T14:06:47;13.36;55.70
71082;SHT31;58740;50.672;18.690;2022-11-03T14:09:15;13.35;55.92
71082;SHT31;58740;50.672;18.690;2022-11-03T14:11:42;13.31;55.99
71082;SHT31;58740;50.672;18.690;2022-11-03T14:14:29;13.28;56.44
71082;SHT31;58740;50.672;18.690;2022-11-03T14:16:56;13.25;56.49
71082;SHT31;58740;50.672;18.690;2022-11-03T14:19:24;13.20;56.49
71082;SHT31;58740;50.672;18.690;2022-11-03T14:22:04;13.17;56.94
71082;SHT31;58740;50.672;18.690;2022-11-03T14:24:32;13.12;57.00
71082;SHT31;58740;50.672;18.690;2022-11-03T14:27:00;13.08;57.17
71082;SHT31;58740;50.672;18.690;2022-11-03T14:29:28;13.04;57.29
71082;SHT31;58740;50.672;18.690;2022-11-03T14:31:56;13.00;57.34
71082;SHT31;58740;50.672;18.690;2022-11-03T14:34:23;12.97;57.40
71082;SHT31;58740;50.672;18.690;2022-11-03T14:36:51;12.93;57.61
71082;SHT31;58740;50.672;18.690;2022-11-03T14:39:19;12.90;57.66
71082;SHT31;58740;50.672;18.690;2022-11-03T14:41:47;12.87;57.82
71082;SHT31;58740;50.672;18.690;2022-11-03T14:44:31;12.83;57.90
71082;SHT31;58740;50.672;18.690;2022-11-03T14:47:01;12.81;57.95
71082;SHT31;58740;50.672;18.690;2022-11-03T14:49:31;12.78;58.06
71082;SHT31;58740;50.672;18.690;2022-11-03T14:52:02;12.76;58.10
71082;SHT31;58740;50.672;18.690;2022-11-03T14:54:32;12.72;58.30
71082;SHT31;58740;50.672;18.690;2022-11-03T14:57:02;12.69;58.58
71082;SHT31;58740;50.672;18.690;2022-11-03T14:59:31;12.65;58.83
71082;SHT31;58740;50.672;18.690;2022-11-03T15:02:00;12.63;59.09
71082;SHT31;58740;50.672;18.690;2022-11-03T15:04:28;12.60;59.44
71082;SHT31;58740;50.672;18.690;2022-11-03T15:06:56;12.58;59.78
71082;SHT31;58740;50.672;18.690;2022-11-03T15:09:24;12.56;60.05
71082;SHT31;58740;50.672;18.690;2022-11-03T15:11:51;12.53;60.28
71082;SHT31;58740;50.672;18.690;2022-11-03T15:14:19;12.51;60.47
71082;SHT31;58740;50.672;18.690;2022-11-03T15:16:47;12.47;60.69
71082;SHT31;58740;50.672;18.690;2022-11-03T15:19:15;12.45;60.90
71082;SHT31;58740;50.672;18.690;2022-11-03T15:21:43;12.42;61.11
71082;SHT31;58740;50.672;18.690;2022-11-03T15:24:10;12.40;61.38
71082;SHT31;58740;50.672;18.690;2022-11-03T15:26:58;12.37;61.65
71082;SHT31;58740;50.672;18.690;2022-11-03T15:29:26;12.34;61.90
71082;SHT31;58740;50.672;18.690;2022-11-03T15:31:53;12.31;62.07
71082;SHT31;58740;50.672;18.690;2022-11-03T15:34:21;12.28;62.19
71082;SHT31;58740;50.672;18.690;2022-11-03T15:36:49;12.26;62.12
71082;SHT31;58740;50.672;18.690;2022-11-03T15:39:17;12.22;61.96
71082;SHT31;58740;50.672;18.690;2022-11-03T15:41:44;12.18;62.01
71082;SHT31;58740;50.672;18.690;2022-11-03T15:44:12;12.15;62.00
71082;SHT31;58740;50.672;18.690;2022-11-03T15:46:40;12.12;61.87
71082;SHT31;58740;50.672;18.690;2022-11-03T15:49:07;12.08;61.71
71082;SHT31;58740;50.672;18.690;2022-11-03T15:51:35;12.06;61.75
71082;SHT31;58740;50.672;18.690;2022-11-03T15:54:03;12.02;61.80
71082;SHT31;58740;50.672;18.690;2022-11-03T15:56:31;12.00;61.80
71082;SHT31;58740;50.672;18.690;2022-11-03T15:58:58;11.98;61.76
71082;SHT31;58740;50.672;18.690;2022-11-03T16:01:26;11.94;61.66
71082;SHT31;58740;50.672;18.690;2022-11-03T16:03:54;11.91;61.62
71082;SHT31;58740;50.672;18.690;2022-11-03T16:06:22;11.89;61.69
71082;SHT31;58740;50.672;18.690;2022-11-03T16:09:09;11.85;61.84
71082;SHT31;58740;50.672;18.690;2022-11-03T16:11:37;11.83;61.91
71082;SHT31;58740;50.672;18.690;2022-11-03T16:14:05;11.79;62.03
71082;SHT31;58740;50.672;18.690;2022-11-03T16:16:32;11.77;62.14
71082;SHT31;58740;50.672;18.690;2022-11-03T16:19:00;11.74;62.16
71082;SHT31;58740;50.672;18.690;2022-11-03T16:21:28;11.71;62.28
71082;SHT31;58740;50.672;18.690;2022-11-03T16:23:56;11.67;62.39
71082;SHT31;58740;50.672;18.690;2022-11-03T16:26:24;11.65;62.64
71082;SHT31;58740;50.672;18.690;2022-11-03T16:28:51;11.63;62.78
71082;SHT31;58740;50.672;18.690;2022-11-03T16:31:19;11.61;62.95
71082;SHT31;58740;50.672;18.690;2022-11-03T16:33:47;11.60;63.14
71082;SHT31;58740;50.672;18.690;2022-11-03T16:36:14;11.58;63.30
71082;SHT31;58740;50.672;18.690;2022-11-03T16:38:42;11.56;63.46
71082;SHT31;58740;50.672;18.690;2022-11-03T16:41:10;11.55;63.64
71082;SHT31;58740;50.672;18.690;2022-11-03T16:43:38;11.56;63.78
71082;SHT31;58740;50.672;18.690;2022-11-03T16:46:06;11.57;63.88
71082;SHT31;58740;50.672;18.690;2022-11-03T16:48:34;11.57;64.02
71082;SHT31;58740;50.672;18.690;2022-11-03T16:51:01;11.57;64.17
71082;SHT31;58740;50.672;18.690;2022-11-03T16:53:29;11.57;64.26
71082;SHT31;58740;50.672;18.690;2022-11-03T16:55:57;11.56;64.41
71082;SHT31;58740;50.672;18.690;2022-11-03T16:58:24;11.54;64.56
71082;SHT31;58740;50.672;18.690;2022-11-03T17:00:52;11.50;64.74
71082;SHT31;58740;50.672;18.690;2022-11-03T17:03:20;11.48;64.83
71082;SHT31;58740;50.672;18.690;2022-11-03T17:05:47;11.45;65.00
71082;SHT31;58740;50.672;18.690;2022-11-03T17:08:15;11.42;65.14
71082;SHT31;58740;50.672;18.690;2022-11-03T17:11:03;11.35;65.33
71082;SHT31;58740;50.672;18.690;2022-11-03T17:13:31;11.32;65.47
71082;SHT31;58740;50.672;18.690;2022-11-03T17:15:59;11.28;65.60
71082;SHT31;58740;50.672;18.690;2022-11-03T17:18:26;11.24;65.76
71082;SHT31;58740;50.672;18.690;2022-11-03T17:20:54;11.23;65.84